createdAt,value
2018-07-11T00:01:24.260Z,17.47
2018-07-11T00:03:54.103Z,17.44
2018-07-11T00:06:23.977Z,17.41
2018-07-11T00:08:52.527Z,17.36
2018-07-11T00:11:21.130Z,17.32
2018-07-11T00:13:50.070Z,17.26
2018-07-11T00:16:19.008Z,17.20
2018-07-11T00:18:47.619Z,17.16
2018-07-11T00:21:16.332Z,17.11
2018-07-11T00:23:45.084Z,17.08
2018-07-11T00:26:13.892Z,17.03
2018-07-11T00:28:42.746Z,17.00
2018-07-11T00:31:11.486Z,16.96
2018-07-11T00:33:40.270Z,16.90
2018-07-11T00:36:08.927Z,16.86
2018-07-11T00:38:37.509Z,16.83
2018-07-11T00:41:07.134Z,16.77
2018-07-11T00:43:35.933Z,16.72
2018-07-11T00:46:05.371Z,16.68
2018-07-11T00:48:34.803Z,16.64
2018-07-11T00:51:03.954Z,16.60
2018-07-11T00:53:35.270Z,16.56
2018-07-11T00:56:03.972Z,16.52
2018-07-11T00:58:37.231Z,16.48
2018-07-11T01:01:11.730Z,16.44
2018-07-11T01:03:57.479Z,16.39
2018-07-11T01:06:26.154Z,16.35
2018-07-11T01:08:56.675Z,16.32
2018-07-11T01:11:26.042Z,16.29
2018-07-11T01:13:54.995Z,16.24
2018-07-11T01:16:24.417Z,16.13
2018-07-11T01:19:04.343Z,16.15
2018-07-11T01:21:33.637Z,16.12
2018-07-11T01:24:02.302Z,16.07
2018-07-11T01:26:35.181Z,16.02
2018-07-11T01:29:04.198Z,15.97
2018-07-11T01:31:32.980Z,15.98
2018-07-11T01:34:01.911Z,15.94
2018-07-11T01:36:31.185Z,15.96
2018-07-11T01:39:00.694Z,15.91
2018-07-11T01:41:30.217Z,15.91
2018-07-11T01:43:59.078Z,15.89
2018-07-11T01:46:34.745Z,15.87
2018-07-11T01:49:03.512Z,15.85
2018-07-11T01:51:45.180Z,15.80
2018-07-11T01:54:14.093Z,15.79
2018-07-11T01:56:42.879Z,15.75
2018-07-11T01:59:11.670Z,15.73
2018-07-11T02:01:40.662Z,15.69
2018-07-11T02:04:09.448Z,15.68
2018-07-11T02:06:38.253Z,15.64
2018-07-11T02:09:07.238Z,15.61
2018-07-11T02:11:36.021Z,15.57
2018-07-11T02:14:05.737Z,15.54
2018-07-11T02:16:35.337Z,15.54
2018-07-11T02:19:04.878Z,15.48
2018-07-11T02:21:33.836Z,15.47
2018-07-11T02:24:04.305Z,15.48
2018-07-11T02:26:33.453Z,15.47
2018-07-11T02:29:02.189Z,15.47
2018-07-11T02:31:31.848Z,15.47
2018-07-11T02:34:01.260Z,15.49
2018-07-11T02:36:30.144Z,15.49
2018-07-11T02:38:58.795Z,15.48
2018-07-11T02:41:27.515Z,15.47
2018-07-11T02:43:56.401Z,15.46
2018-07-11T02:46:30.226Z,15.14
2018-07-11T02:48:59.099Z,15.42
2018-07-11T02:51:27.886Z,14.99
2018-07-11T02:53:56.673Z,15.40
2018-07-11T02:56:25.434Z,15.39
2018-07-11T02:58:54.043Z,15.40
2018-07-11T03:01:22.747Z,15.41
2018-07-11T03:03:51.516Z,15.39
2018-07-11T03:06:20.201Z,15.38
2018-07-11T03:08:48.990Z,15.38
2018-07-11T03:11:17.791Z,15.37
2018-07-11T03:13:46.565Z,15.41
2018-07-11T03:16:15.452Z,15.41
2018-07-11T03:18:44.240Z,15.41
2018-07-11T03:21:13.040Z,15.40
2018-07-11T03:23:41.826Z,15.42
2018-07-11T03:26:10.605Z,15.43
2018-07-11T03:28:39.417Z,15.43
2018-07-11T03:31:08.181Z,15.51
2018-07-11T03:33:36.957Z,15.56
2018-07-11T03:36:05.661Z,15.61
2018-07-11T03:38:34.336Z,15.67
2018-07-11T03:41:03.110Z,15.78
2018-07-11T03:43:31.880Z,15.87
2018-07-11T03:46:00.610Z,16.00
2018-07-11T03:48:29.382Z,16.08
2018-07-11T03:50:58.360Z,16.16
2018-07-11T03:53:26.971Z,16.21
2018-07-11T03:55:55.662Z,16.28
2018-07-11T03:58:24.389Z,16.30
2018-07-11T04:00:53.023Z,16.39
2018-07-11T04:03:21.801Z,16.46
2018-07-11T04:05:50.399Z,16.53
2018-07-11T04:08:19.046Z,16.62
2018-07-11T04:10:47.732Z,16.70
2018-07-11T04:13:17.172Z,16.79
2018-07-11T04:15:45.843Z,16.85
2018-07-11T04:18:29.990Z,16.99
2018-07-11T04:21:00.237Z,17.13
2018-07-11T04:23:29.306Z,17.30
2018-07-11T04:25:58.401Z,17.41
2018-07-11T04:28:28.315Z,17.52
2018-07-11T04:30:57.410Z,17.60
2018-07-11T04:33:26.650Z,17.69
2018-07-11T04:35:55.911Z,17.85
2018-07-11T04:38:25.221Z,18.06
2018-07-11T04:40:53.934Z,18.20
2018-07-11T04:43:24.038Z,18.37
2018-07-11T04:45:52.805Z,18.59
2018-07-11T04:48:21.688Z,18.74
2018-07-11T04:50:51.675Z,18.90
2018-07-11T04:53:22.846Z,19.06
2018-07-11T04:55:59.120Z,19.17
2018-07-11T04:58:28.635Z,19.06
2018-07-11T05:00:58.098Z,19.37
2018-07-11T05:03:27.419Z,19.47
2018-07-11T05:05:56.458Z,19.57
2018-07-11T05:08:26.019Z,19.64
2018-07-11T05:10:54.734Z,19.71
2018-07-11T05:13:23.901Z,19.79
2018-07-11T05:15:53.406Z,19.85
2018-07-11T05:18:22.193Z,19.88
2018-07-11T05:20:50.899Z,19.87
2018-07-11T05:23:19.563Z,19.94
2018-07-11T05:25:48.233Z,20.05
2018-07-11T05:28:17.041Z,20.15
2018-07-11T05:30:45.694Z,20.18
2018-07-11T05:33:14.388Z,20.32
2018-07-11T05:35:43.132Z,20.44
2018-07-11T05:38:11.826Z,20.54
2018-07-11T05:40:41.113Z,20.65
2018-07-11T05:43:10.028Z,20.75
2018-07-11T05:45:38.685Z,20.84
2018-07-11T05:48:07.564Z,20.94
2018-07-11T05:50:36.239Z,21.04
2018-07-11T05:53:05.527Z,21.17
2018-07-11T05:55:34.222Z,21.29
2018-07-11T05:58:02.898Z,21.38
2018-07-11T06:00:31.584Z,21.50
2018-07-11T06:03:00.373Z,21.65
2018-07-11T06:05:29.216Z,21.77
2018-07-11T06:07:57.947Z,21.87
2018-07-11T06:10:26.541Z,21.95
2018-07-11T06:12:55.216Z,22.05
2018-07-11T06:15:23.910Z,22.17
2018-07-11T06:17:52.511Z,22.28
2018-07-11T06:20:21.518Z,22.35
2018-07-11T06:22:50.266Z,22.45
2018-07-11T06:25:19.058Z,22.58
2018-07-11T06:27:47.855Z,22.64
2018-07-11T06:30:16.629Z,22.70
2018-07-11T06:32:45.298Z,22.80
2018-07-11T06:35:13.921Z,22.87
2018-07-11T06:37:42.833Z,23.02
2018-07-11T06:40:11.575Z,23.11
2018-07-11T06:42:40.313Z,23.21
2018-07-11T06:45:08.996Z,23.28
2018-07-11T06:47:37.731Z,23.36
2018-07-11T06:50:06.417Z,23.46
2018-07-11T06:52:35.105Z,23.57
2018-07-11T06:55:03.874Z,23.69
2018-07-11T06:57:32.539Z,23.75
2018-07-11T07:00:01.261Z,23.83
2018-07-11T07:02:29.944Z,23.88
2018-07-11T07:04:58.736Z,23.92
2018-07-11T07:07:27.318Z,24.02
2018-07-11T07:09:56.718Z,24.09
2018-07-11T07:12:25.506Z,24.19
2018-07-11T07:14:54.193Z,24.27
2018-07-11T07:17:22.874Z,24.35
2018-07-11T07:19:51.664Z,24.38
2018-07-11T07:22:20.246Z,24.55
2018-07-11T07:24:48.843Z,24.64
2018-07-11T07:27:17.515Z,24.64
2018-07-11T07:29:46.097Z,24.70
2018-07-11T07:32:16.233Z,24.76
2018-07-11T07:34:45.073Z,24.85
2018-07-11T07:37:13.692Z,24.92
2018-07-11T07:39:42.478Z,24.95
2018-07-11T07:42:11.101Z,24.89
2018-07-11T07:44:39.810Z,24.98
2018-07-11T07:47:12.818Z,25.10
2018-07-11T07:49:42.011Z,25.26
2018-07-11T07:52:10.717Z,25.29
2018-07-11T07:54:39.430Z,25.27
2018-07-11T07:57:08.194Z,25.29
2018-07-11T07:59:36.927Z,25.38
2018-07-11T08:02:05.685Z,25.39
2018-07-11T08:04:34.349Z,25.44
2018-07-11T08:07:03.327Z,25.44
2018-07-11T08:09:32.025Z,25.43
2018-07-11T08:12:00.711Z,25.37
2018-07-11T08:14:29.396Z,25.39
2018-07-11T08:16:58.308Z,25.45
2018-07-11T08:19:27.074Z,25.51
2018-07-11T08:21:55.866Z,25.39
2018-07-11T08:24:35.798Z,25.48
2018-07-11T08:27:19.139Z,25.78
2018-07-11T08:29:56.763Z,25.92
2018-07-11T08:34:43.343Z,26.00
2018-07-11T08:38:57.850Z,26.38
2018-07-11T08:41:38.267Z,26.48
2018-07-11T08:44:20.161Z,26.60
2018-07-11T08:47:58.819Z,26.54
2018-07-11T08:54:50.332Z,26.63
2018-07-11T08:57:36.791Z,26.76
2018-07-11T09:00:14.390Z,26.93
2018-07-11T09:02:54.835Z,27.03
2018-07-11T09:07:40.080Z,27.07
2018-07-11T09:12:28.130Z,27.03
2018-07-11T09:17:16.281Z,26.97
2018-07-11T09:20:53.989Z,26.86
2018-07-11T09:25:34.380Z,26.77
2018-07-11T09:28:02.998Z,26.92
2018-07-11T09:30:31.760Z,26.81
2018-07-11T09:33:00.415Z,26.76
2018-07-11T09:35:29.200Z,26.65
2018-07-11T09:37:57.886Z,26.52
2018-07-11T09:40:26.398Z,26.45
2018-07-11T09:42:55.007Z,26.39
2018-07-11T09:45:23.714Z,26.35
2018-07-11T09:47:52.339Z,26.27
2018-07-11T09:50:21.108Z,26.23
2018-07-11T09:52:49.752Z,26.25
2018-07-11T09:55:19.808Z,26.23
2018-07-11T09:57:48.403Z,26.22
2018-07-11T10:00:22.324Z,26.20
2018-07-11T10:02:51.088Z,26.15
2018-07-11T10:05:20.798Z,26.09
2018-07-11T10:07:49.790Z,26.08
2018-07-11T10:10:18.315Z,25.93
2018-07-11T10:12:47.001Z,25.94
2018-07-11T10:15:15.640Z,25.93
2018-07-11T10:17:44.285Z,25.96
2018-07-11T10:20:12.841Z,26.06
2018-07-11T10:22:41.593Z,26.00
2018-07-11T10:25:10.239Z,25.95
2018-07-11T10:27:40.715Z,25.85
2018-07-11T10:30:09.379Z,25.91
2018-07-11T10:32:39.353Z,26.06
2018-07-11T10:35:07.930Z,26.01
2018-07-11T10:37:37.701Z,25.93
2018-07-11T10:40:06.282Z,25.92
2018-07-11T10:42:34.915Z,25.91
2018-07-11T10:45:03.462Z,25.84
2018-07-11T10:47:32.483Z,25.74
2018-07-11T10:50:01.069Z,25.69
2018-07-11T10:52:29.711Z,25.66
2018-07-11T10:54:58.351Z,25.65
2018-07-11T10:57:26.938Z,25.68
2018-07-11T10:59:57.714Z,25.70
2018-07-11T11:02:26.400Z,25.78
2018-07-11T11:04:55.734Z,25.80
2018-07-11T11:07:24.384Z,25.82
2018-07-11T11:09:53.144Z,25.85
2018-07-11T11:12:21.752Z,25.86
2018-07-11T11:14:50.442Z,25.88
2018-07-11T11:17:19.125Z,25.94
2018-07-11T11:19:47.914Z,25.98
2018-07-11T11:22:16.474Z,26.01
2018-07-11T11:24:45.284Z,26.04
2018-07-11T11:27:13.863Z,26.02
2018-07-11T11:29:42.391Z,26.02
2018-07-11T11:32:11.132Z,26.07
2018-07-11T11:34:39.737Z,26.08
2018-07-11T11:37:08.351Z,26.10
2018-07-11T11:39:36.972Z,26.17
2018-07-11T11:42:05.648Z,26.29
2018-07-11T11:44:34.411Z,26.52
2018-07-11T11:47:03.382Z,26.68
2018-07-11T11:49:32.483Z,26.67
2018-07-11T11:52:01.334Z,26.50
2018-07-11T11:54:30.221Z,26.43
2018-07-11T11:56:58.908Z,26.46
2018-07-11T11:59:27.597Z,26.46
2018-07-11T12:01:56.277Z,26.36
2018-07-11T12:04:24.962Z,26.38
2018-07-11T12:06:53.647Z,26.41
2018-07-11T12:09:22.159Z,26.43
2018-07-11T12:11:50.687Z,26.33
2018-07-11T12:14:19.473Z,26.02
2018-07-11T12:16:48.818Z,25.93
2018-07-11T12:19:18.204Z,25.86
2018-07-11T12:21:46.986Z,25.69
2018-07-11T12:24:15.776Z,25.66
2018-07-11T12:26:44.820Z,25.83
2018-07-11T12:29:13.457Z,25.91
2018-07-11T12:31:42.591Z,25.86
2018-07-11T12:34:11.233Z,25.84
2018-07-11T12:36:40.126Z,25.69
2018-07-11T12:39:08.750Z,25.58
2018-07-11T12:41:37.699Z,25.59
2018-07-11T12:44:06.384Z,25.54
2018-07-11T12:46:35.519Z,25.60
2018-07-11T12:49:06.255Z,25.59
2018-07-11T12:51:35.354Z,25.70
2018-07-11T12:54:04.811Z,25.85
2018-07-11T12:56:33.495Z,25.91
2018-07-11T12:59:02.078Z,25.87
2018-07-11T13:01:30.667Z,25.82
2018-07-11T13:03:59.961Z,25.95
2018-07-11T13:06:30.041Z,26.02
2018-07-11T13:08:58.767Z,25.91
2018-07-11T13:11:27.407Z,25.85
2018-07-11T13:13:56.038Z,25.95
2018-07-11T13:16:24.795Z,26.07
2018-07-11T13:18:53.404Z,26.13
2018-07-11T13:21:22.680Z,26.23
2018-07-11T13:23:51.290Z,26.20
2018-07-11T13:26:20.178Z,26.25
2018-07-11T13:28:48.719Z,26.24
2018-07-11T13:31:17.446Z,26.23
2018-07-11T13:33:46.039Z,26.35
2018-07-11T13:36:14.615Z,26.33
2018-07-11T13:38:43.250Z,26.50
2018-07-11T13:41:11.947Z,26.49
2018-07-11T13:43:40.511Z,26.54
2018-07-11T13:46:09.263Z,26.43
2018-07-11T13:48:37.978Z,26.66
2018-07-11T13:51:06.627Z,26.92
2018-07-11T13:53:35.264Z,27.07
2018-07-11T13:56:04.506Z,27.17
2018-07-11T13:58:34.295Z,27.12
2018-07-11T14:01:03.617Z,26.99
2018-07-11T14:03:32.406Z,26.88
2018-07-11T14:06:00.971Z,26.81
2018-07-11T14:08:30.286Z,26.71
2018-07-11T14:10:58.972Z,26.72
2018-07-11T14:13:27.658Z,26.73
2018-07-11T14:15:56.445Z,26.74
2018-07-11T14:18:25.643Z,26.68
2018-07-11T14:20:54.329Z,26.51
2018-07-11T14:23:34.131Z,26.58
2018-07-11T14:26:03.230Z,26.61
2018-07-11T14:28:32.824Z,26.63
2018-07-11T14:31:02.548Z,26.58
2018-07-11T14:33:33.180Z,26.58
2018-07-11T14:36:02.272Z,26.71
2018-07-11T14:38:31.612Z,26.75
2018-07-11T14:41:02.919Z,26.73
2018-07-11T14:43:32.052Z,26.75
2018-07-11T14:46:00.840Z,26.73
2018-07-11T14:48:31.025Z,26.66
2018-07-11T14:51:00.835Z,26.68
2018-07-11T14:53:29.859Z,26.70
2018-07-11T14:55:58.654Z,26.75
2018-07-11T14:58:27.549Z,26.67
2018-07-11T15:00:56.331Z,26.71
2018-07-11T15:03:25.010Z,26.76
2018-07-11T15:05:53.692Z,26.81
2018-07-11T15:08:22.408Z,26.87
2018-07-11T15:10:51.054Z,27.03
2018-07-11T15:13:19.860Z,27.05
2018-07-11T15:15:48.545Z,27.03
2018-07-11T15:18:17.167Z,27.07
2018-07-11T15:20:45.916Z,26.90
2018-07-11T15:23:14.515Z,26.81
2018-07-11T15:25:43.304Z,26.83
2018-07-11T15:28:11.972Z,26.82
2018-07-11T15:30:43.934Z,26.79
2018-07-11T15:33:12.535Z,26.93
2018-07-11T15:35:41.304Z,26.99
2018-07-11T15:38:09.990Z,27.08
2018-07-11T15:40:39.236Z,27.14
2018-07-11T15:43:07.872Z,27.12
2018-07-11T15:45:36.423Z,27.15
2018-07-11T15:48:05.176Z,27.29
2018-07-11T15:50:34.076Z,27.27
2018-07-11T15:53:02.799Z,27.40
2018-07-11T15:55:32.689Z,27.51
2018-07-11T15:58:07.345Z,27.64
2018-07-11T16:00:38.419Z,27.76
2018-07-11T16:03:07.227Z,27.91
2018-07-11T16:05:40.482Z,28.01
2018-07-11T16:08:12.359Z,28.05
2018-07-11T16:10:47.761Z,28.08
2018-07-11T16:13:20.017Z,28.16
2018-07-11T16:15:48.619Z,28.27
2018-07-11T16:18:17.502Z,28.34
2018-07-11T16:20:46.206Z,28.46
2018-07-11T16:23:15.226Z,28.55
2018-07-11T16:25:44.605Z,28.74
2018-07-11T16:28:13.350Z,28.88
2018-07-11T16:30:42.038Z,28.89
2018-07-11T16:33:10.686Z,28.80
2018-07-11T16:35:39.375Z,28.46
2018-07-11T16:38:08.033Z,28.40
2018-07-11T16:40:36.648Z,28.27
2018-07-11T16:43:06.476Z,28.26
2018-07-11T16:45:35.172Z,28.35
2018-07-11T16:48:03.948Z,28.41
2018-07-11T16:50:32.531Z,28.41
2018-07-11T16:53:01.325Z,28.42
2018-07-11T16:55:30.927Z,28.43
2018-07-11T16:57:59.562Z,28.37
2018-07-11T17:00:32.215Z,28.20
2018-07-11T17:03:06.510Z,28.07
2018-07-11T17:06:09.906Z,28.03
2018-07-11T17:08:43.966Z,27.94
2018-07-11T17:11:16.850Z,27.91
2018-07-11T17:13:55.667Z,28.03
2018-07-11T17:16:30.712Z,28.07
2018-07-11T17:19:09.611Z,28.03
2018-07-11T17:21:43.025Z,28.03
2018-07-11T17:24:13.447Z,28.07
2018-07-11T17:26:43.578Z,28.14
2018-07-11T17:29:20.474Z,28.05
2018-07-11T17:31:51.385Z,27.86
2018-07-11T17:34:20.087Z,27.72
2018-07-11T17:36:51.043Z,27.60
2018-07-11T17:39:20.184Z,27.69
2018-07-11T17:41:48.779Z,27.78
2018-07-11T17:44:19.003Z,27.84
2018-07-11T17:46:47.804Z,27.80
2018-07-11T17:49:25.718Z,27.68
2018-07-11T17:52:01.093Z,27.68
2018-07-11T17:55:20.007Z,27.70
2018-07-11T17:57:54.182Z,27.77
2018-07-11T18:01:47.620Z,27.78
2018-07-11T18:04:57.267Z,27.77
2018-07-11T18:07:36.270Z,27.70
2018-07-11T18:10:09.447Z,27.66
2018-07-11T18:12:57.242Z,27.48
2018-07-11T18:15:33.877Z,27.41
2018-07-11T18:19:20.199Z,27.40
2018-07-11T18:22:04.594Z,27.31
2018-07-11T18:24:43.993Z,27.12
2018-07-11T18:27:22.423Z,27.12
2018-07-11T18:31:00.742Z,27.08
2018-07-11T18:33:44.120Z,26.93
2018-07-11T18:38:25.402Z,26.92
2018-07-11T18:41:03.619Z,26.77
2018-07-11T18:44:43.473Z,26.72
2018-07-11T18:47:23.769Z,26.63
2018-07-11T18:52:10.003Z,26.52
2018-07-11T18:56:50.868Z,26.39
2018-07-11T18:59:31.331Z,26.29
2018-07-11T19:02:05.909Z,26.22
2018-07-11T19:04:49.431Z,26.16
2018-07-11T19:07:38.982Z,26.09
2018-07-11T19:10:07.806Z,26.01
2018-07-11T19:12:52.228Z,25.94
2018-07-11T19:15:32.824Z,25.86
2018-07-11T19:18:10.931Z,25.82
2018-07-11T19:20:45.468Z,25.77
2018-07-11T19:23:25.199Z,25.68
2018-07-11T19:27:00.238Z,25.58
2018-07-11T19:30:15.994Z,25.46
2018-07-11T19:33:05.982Z,25.37
2018-07-11T19:35:45.755Z,25.25
2018-07-11T19:38:37.164Z,25.12
2018-07-11T19:41:28.419Z,24.99
2018-07-11T19:46:20.843Z,24.87
2018-07-11T19:49:00.740Z,24.62
2018-07-11T19:51:39.243Z,24.48
2018-07-11T19:54:16.092Z,24.35
2018-07-11T19:56:46.614Z,24.23
2018-07-11T19:59:16.362Z,24.09
2018-07-11T20:01:46.644Z,23.98
2018-07-11T20:04:16.051Z,23.89
2018-07-11T20:06:45.345Z,23.77
2018-07-11T20:09:14.133Z,23.69
2018-07-11T20:11:42.886Z,23.61
2018-07-11T20:14:11.476Z,23.47
2018-07-11T20:16:40.159Z,23.34
2018-07-11T20:19:09.591Z,23.24
2018-07-11T20:21:38.836Z,23.12
2018-07-11T20:24:07.453Z,22.98
2018-07-11T20:26:36.084Z,22.90
2018-07-11T20:29:04.950Z,22.79
2018-07-11T20:31:33.735Z,22.71
2018-07-11T20:34:02.419Z,22.63
2018-07-11T20:36:31.003Z,22.53
2018-07-11T20:38:59.655Z,22.43
2018-07-11T20:41:28.579Z,22.31
2018-07-11T20:43:57.235Z,22.21
2018-07-11T20:46:26.476Z,22.08
2018-07-11T20:48:55.353Z,21.97
2018-07-11T20:51:23.855Z,21.88
2018-07-11T20:53:52.504Z,21.79
2018-07-11T20:56:21.100Z,21.70
2018-07-11T20:59:00.860Z,21.59
2018-07-11T21:01:40.693Z,21.50
2018-07-11T21:04:21.207Z,21.41
2018-07-11T21:07:00.927Z,21.30
2018-07-11T21:10:39.645Z,21.21
2018-07-11T21:13:19.461Z,21.14
2018-07-11T21:18:01.225Z,21.07
2018-07-11T21:20:29.859Z,20.94
2018-07-11T21:22:58.463Z,20.85
2018-07-11T21:25:27.131Z,20.79
2018-07-11T21:27:55.812Z,20.73
2018-07-11T21:30:24.543Z,20.16
2018-07-11T21:32:53.100Z,20.59
2018-07-11T21:35:21.663Z,20.55
2018-07-11T21:37:50.246Z,20.49
2018-07-11T21:40:18.886Z,20.44
2018-07-11T21:42:47.515Z,20.36
2018-07-11T21:45:16.650Z,20.32
2018-07-11T21:47:45.239Z,20.26
2018-07-11T21:50:13.878Z,20.21
2018-07-11T21:52:42.489Z,20.16
2018-07-11T21:55:11.134Z,20.10
2018-07-11T21:57:40.032Z,20.03
2018-07-11T22:00:08.773Z,20.01
2018-07-11T22:02:37.257Z,19.95
2018-07-11T22:05:05.855Z,19.90
2018-07-11T22:07:34.470Z,19.84
2018-07-11T22:10:03.258Z,19.79
2018-07-11T22:12:32.620Z,19.74
2018-07-11T22:15:01.199Z,19.67
2018-07-11T22:17:40.989Z,19.60
2018-07-11T22:20:08.341Z,19.55
2018-07-11T22:22:35.798Z,19.50
2018-07-11T22:25:03.150Z,19.43
2018-07-11T22:27:30.535Z,19.38
2018-07-11T22:29:57.863Z,19.34
2018-07-11T22:32:25.159Z,19.30
2018-07-11T22:34:52.506Z,19.25
2018-07-11T22:37:19.819Z,19.21
2018-07-11T22:39:47.094Z,19.15
2018-07-11T22:42:14.527Z,19.12
2018-07-11T22:44:41.883Z,19.06
2018-07-11T22:47:09.159Z,19.04
2018-07-11T22:49:40.595Z,19.00
2018-07-11T22:52:07.869Z,18.96
2018-07-11T22:54:35.291Z,18.94
2018-07-11T22:57:02.593Z,18.89
2018-07-11T22:59:29.904Z,18.84
2018-07-11T23:01:57.206Z,18.82
2018-07-11T23:04:24.489Z,18.79
2018-07-11T23:06:51.857Z,18.76
2018-07-11T23:09:19.127Z,18.72
2018-07-11T23:11:46.565Z,18.69
2018-07-11T23:14:13.919Z,18.66
2018-07-11T23:16:41.887Z,18.61
2018-07-11T23:19:09.156Z,18.59
2018-07-11T23:21:36.701Z,18.56
2018-07-11T23:24:04.976Z,18.53
2018-07-11T23:26:32.328Z,18.43
2018-07-11T23:28:59.785Z,18.49
2018-07-11T23:31:27.063Z,18.50
2018-07-11T23:33:54.494Z,18.55
2018-07-11T23:36:21.763Z,18.58
2018-07-11T23:38:49.203Z,18.60
2018-07-11T23:43:47.654Z,18.61
2018-07-11T23:46:15.053Z,18.62
2018-07-11T23:48:42.407Z,18.60
2018-07-11T23:51:09.761Z,18.56
2018-07-11T23:53:37.117Z,18.56
2018-07-11T23:56:04.469Z,18.52
2018-07-11T23:58:31.823Z,18.48
